createdAt,value
2023-02-23T00:01:51.451Z,61.83
2023-02-23T00:04:20.929Z,64.88
2023-02-23T00:06:47.806Z,59.88
2023-02-23T00:09:23.162Z,63.38
2023-02-23T00:11:57.382Z,60.55
2023-02-23T00:14:28.924Z,59.60
2023-02-23T00:16:56.426Z,63.33
2023-02-23T00:19:24.712Z,71.20
2023-02-23T00:21:52.176Z,63.42
2023-02-23T00:24:19.807Z,70.95
2023-02-23T00:26:47.845Z,64.30
2023-02-23T00:29:17.280Z,70.80
2023-02-23T00:31:45.406Z,60.72
2023-02-23T00:34:14.500Z,64.93
2023-02-23T00:36:41.535Z,74.57
2023-02-23T00:39:26.723Z,69.60
2023-02-23T00:41:53.913Z,75.07
2023-02-23T00:44:21.756Z,67.55
2023-02-23T00:46:51.804Z,67.70
2023-02-23T00:51:46.951Z,66.10
2023-02-23T00:54:14.774Z,69.05
2023-02-23T00:56:41.452Z,76.80
2023-02-23T00:59:08.170Z,61.55
2023-02-23T01:01:35.157Z,69.95
2023-02-23T01:04:02.197Z,64.15
2023-02-23T01:06:28.914Z,69.35
2023-02-23T01:08:57.640Z,70.50
2023-02-23T01:11:33.620Z,74.07
2023-02-23T01:14:01.132Z,73.05
2023-02-23T01:16:31.286Z,77.07
2023-02-23T01:19:00.673Z,69.22
2023-02-23T01:21:33.474Z,68.57
2023-02-23T01:24:00.875Z,73.57
2023-02-23T01:26:36.684Z,67.97
2023-02-23T01:29:10.569Z,62.92
2023-02-23T01:31:42.632Z,70.20
2023-02-23T01:34:11.920Z,64.70
2023-02-23T01:36:42.192Z,65.45
2023-02-23T01:41:38.835Z,71.50
2023-02-23T01:44:08.767Z,72.90
2023-02-23T01:46:39.108Z,63.83
2023-02-23T01:49:09.112Z,73.05
2023-02-23T01:51:41.197Z,69.15
2023-02-23T01:54:15.890Z,69.55
2023-02-23T01:56:49.190Z,64.75
2023-02-23T01:59:17.912Z,76.47
2023-02-23T02:01:45.178Z,80.88
2023-02-23T02:04:16.551Z,79.35
2023-02-23T02:06:46.962Z,73.85
2023-02-23T02:09:19.635Z,74.63
2023-02-23T02:11:54.040Z,61.42
2023-02-23T02:14:25.871Z,67.60
2023-02-23T02:17:10.657Z,75.90
2023-02-23T02:19:58.820Z,66.28
2023-02-23T02:22:34.323Z,69.82
2023-02-23T02:25:00.727Z,73.70
2023-02-23T02:27:46.647Z,73.53
2023-02-23T02:30:13.945Z,65.25
2023-02-23T02:33:05.256Z,66.47
2023-02-23T02:35:46.910Z,68.25
2023-02-23T02:38:43.062Z,71.78
2023-02-23T02:41:20.965Z,68.93
2023-02-23T02:44:00.864Z,71.90
2023-02-23T02:46:34.941Z,62.55
2023-02-23T02:49:09.203Z,68.78
2023-02-23T02:51:43.617Z,63.40
2023-02-23T02:54:28.946Z,66.13
2023-02-23T02:57:00.406Z,69.20
2023-02-23T02:59:46.310Z,70.65
2023-02-23T03:02:36.533Z,73.07
2023-02-23T03:05:22.047Z,66.50
2023-02-23T03:08:44.848Z,69.53
2023-02-23T03:11:33.015Z,60.78
2023-02-23T03:14:36.809Z,69.70
2023-02-23T03:17:47.581Z,70.10
2023-02-23T03:20:53.174Z,75.55
2023-02-23T03:23:56.646Z,69.05
2023-02-23T03:26:56.831Z,67.28
2023-02-23T03:30:02.009Z,68.10
2023-02-23T03:32:56.383Z,71.63
2023-02-23T03:35:47.419Z,65.95
2023-02-23T03:39:08.261Z,68.20
2023-02-23T03:41:55.738Z,60.35
2023-02-23T03:44:48.001Z,70.10
2023-02-23T03:47:35.995Z,67.40
2023-02-23T03:50:25.453Z,70.95
2023-02-23T03:53:19.404Z,75.37
2023-02-23T03:56:11.244Z,70.30
2023-02-23T03:59:03.531Z,61.50
2023-02-23T04:01:51.100Z,72.45
2023-02-23T04:04:37.021Z,77.10
2023-02-23T04:07:25.913Z,71.88
2023-02-23T04:10:11.245Z,67.13
2023-02-23T04:12:59.639Z,72.57
2023-02-23T04:15:47.589Z,72.50
2023-02-23T04:18:17.314Z,67.95
2023-02-23T04:20:43.770Z,67.95
2023-02-23T04:23:10.380Z,84.97
2023-02-23T04:25:37.003Z,75.50
2023-02-23T04:28:03.580Z,67.25
2023-02-23T04:30:30.357Z,74.25
2023-02-23T04:32:57.035Z,71.28
2023-02-23T04:35:23.798Z,68.90
2023-02-23T04:37:50.186Z,75.72
2023-02-23T04:40:16.750Z,78.18
2023-02-23T04:42:43.203Z,79.28
2023-02-23T04:45:10.943Z,83.22
2023-02-23T04:47:37.704Z,75.90
2023-02-23T04:50:04.625Z,81.82
2023-02-23T04:52:31.428Z,75.43
2023-02-23T04:54:57.891Z,78.80
2023-02-23T04:57:24.320Z,72.30
2023-02-23T04:59:50.768Z,75.78
2023-02-23T05:02:17.139Z,73.25
2023-02-23T05:04:44.056Z,78.95
2023-02-23T05:07:10.667Z,76.57
2023-02-23T05:09:37.078Z,79.00
2023-02-23T05:12:03.855Z,72.38
2023-02-23T05:14:30.263Z,73.05
2023-02-23T05:16:56.649Z,64.80
2023-02-23T05:19:23.158Z,77.38
2023-02-23T05:21:50.632Z,74.00
2023-02-23T05:24:18.375Z,70.97
2023-02-23T05:26:45.552Z,70.20
2023-02-23T05:29:12.510Z,64.43
2023-02-23T05:31:39.018Z,62.78
2023-02-23T05:34:05.499Z,80.30
2023-02-23T05:36:31.893Z,73.70
2023-02-23T05:38:58.306Z,74.50
2023-02-23T05:41:25.015Z,77.45
2023-02-23T05:43:52.741Z,79.80
2023-02-23T05:46:22.342Z,87.63
2023-02-23T05:48:48.945Z,89.97
2023-02-23T05:51:16.965Z,82.53
2023-02-23T05:53:44.535Z,88.18
2023-02-23T05:56:20.179Z,91.55
2023-02-23T05:58:57.830Z,94.85
2023-02-23T06:01:25.750Z,97.43
2023-02-23T06:03:52.198Z,120.85
2023-02-23T06:06:18.932Z,113.35
2023-02-23T06:08:45.571Z,108.18
2023-02-23T06:11:12.175Z,112.50
2023-02-23T06:13:44.940Z,125.35
2023-02-23T06:16:11.503Z,112.45
2023-02-23T06:18:37.995Z,131.18
2023-02-23T06:21:05.676Z,120.90
2023-02-23T06:23:33.238Z,120.28
2023-02-23T06:26:00.157Z,116.20
2023-02-23T06:28:27.903Z,125.88
2023-02-23T06:30:55.129Z,123.15
2023-02-23T06:33:22.495Z,118.85
2023-02-23T06:35:49.331Z,129.95
2023-02-23T06:38:15.785Z,117.47
2023-02-23T06:40:43.089Z,126.70
2023-02-23T06:43:09.690Z,128.60
2023-02-23T06:45:36.248Z,134.63
2023-02-23T06:48:02.663Z,129.60
2023-02-23T06:50:29.120Z,118.65
2023-02-23T06:52:57.590Z,138.48
2023-02-23T06:55:24.756Z,132.82
2023-02-23T06:57:54.145Z,138.90
2023-02-23T07:00:21.193Z,135.93
2023-02-23T07:02:47.721Z,139.75
2023-02-23T07:05:14.367Z,136.25
2023-02-23T07:07:40.895Z,141.68
2023-02-23T07:10:07.742Z,128.35
2023-02-23T07:12:34.241Z,134.18
2023-02-23T07:15:00.664Z,129.30
2023-02-23T07:17:27.111Z,140.73
2023-02-23T07:19:53.689Z,143.05
2023-02-23T07:22:20.181Z,134.18
2023-02-23T07:24:46.772Z,134.48
2023-02-23T07:27:13.341Z,133.60
2023-02-23T07:29:40.300Z,130.80
2023-02-23T07:32:07.577Z,140.65
2023-02-23T07:34:34.084Z,147.05
2023-02-23T07:37:00.557Z,127.00
2023-02-23T07:39:27.273Z,148.60
2023-02-23T07:41:53.788Z,148.93
2023-02-23T07:44:20.268Z,144.85
2023-02-23T07:46:46.769Z,154.20
2023-02-23T07:49:13.917Z,150.27
2023-02-23T07:51:41.290Z,141.25
2023-02-23T07:54:07.948Z,137.10
2023-02-23T07:56:35.582Z,146.77
2023-02-23T07:59:02.974Z,140.65
2023-02-23T08:01:29.648Z,143.20
2023-02-23T08:03:56.134Z,140.18
2023-02-23T08:06:22.595Z,155.00
2023-02-23T08:08:49.116Z,152.60
2023-02-23T08:11:15.884Z,155.05
2023-02-23T08:13:42.678Z,153.18
2023-02-23T08:16:09.193Z,156.93
2023-02-23T08:18:35.681Z,157.02
2023-02-23T08:21:03.957Z,158.45
2023-02-23T08:23:31.962Z,161.35
2023-02-23T08:25:59.695Z,158.93
2023-02-23T08:28:27.541Z,153.52
2023-02-23T08:30:54.850Z,168.43
2023-02-23T08:33:22.106Z,160.50
2023-02-23T08:35:48.709Z,164.88
2023-02-23T08:38:16.393Z,153.55
2023-02-23T08:40:43.232Z,144.40
2023-02-23T08:43:10.072Z,160.95
2023-02-23T08:45:38.709Z,141.82
2023-02-23T08:48:06.464Z,142.18
2023-02-23T08:50:33.003Z,139.18
2023-02-23T08:52:59.405Z,156.60
2023-02-23T08:55:25.816Z,149.00
2023-02-23T08:57:52.198Z,153.43
2023-02-23T09:00:19.276Z,163.48
2023-02-23T09:02:48.450Z,172.68
2023-02-23T09:05:15.553Z,163.93
2023-02-23T09:07:44.949Z,176.27
2023-02-23T09:10:16.644Z,179.37
2023-02-23T09:12:43.067Z,192.88
2023-02-23T09:15:10.110Z,186.15
2023-02-23T09:17:36.628Z,180.90
2023-02-23T09:20:04.895Z,177.60
2023-02-23T09:22:32.002Z,188.88
2023-02-23T09:24:58.416Z,206.52
2023-02-23T09:27:25.126Z,196.63
2023-02-23T09:29:53.064Z,190.52
2023-02-23T09:32:19.733Z,222.63
2023-02-23T09:34:48.595Z,235.82
2023-02-23T09:37:16.000Z,212.15
2023-02-23T09:39:43.554Z,236.52
2023-02-23T09:42:25.904Z,246.90
2023-02-23T09:45:11.962Z,243.48
2023-02-23T09:48:04.343Z,255.13
2023-02-23T09:50:34.829Z,221.18
2023-02-23T09:53:14.663Z,231.13
2023-02-23T09:55:43.515Z,230.20
2023-02-23T09:58:21.108Z,225.55
2023-02-23T10:00:58.838Z,233.50
2023-02-23T10:03:35.195Z,247.40
2023-02-23T10:06:06.462Z,242.88
2023-02-23T10:09:11.020Z,226.35
2023-02-23T10:11:44.284Z,225.68
2023-02-23T10:14:35.216Z,220.73
2023-02-23T10:17:18.556Z,235.63
2023-02-23T10:19:53.752Z,246.45
2023-02-23T10:22:20.872Z,253.05
2023-02-23T10:24:55.737Z,234.68
2023-02-23T10:27:29.273Z,253.85
2023-02-23T10:29:57.676Z,236.90
2023-02-23T10:32:45.795Z,255.52
2023-02-23T10:35:15.532Z,217.32
2023-02-23T10:37:42.142Z,225.48
2023-02-23T10:40:16.170Z,215.10
2023-02-23T10:42:42.706Z,194.32
2023-02-23T10:45:18.636Z,216.43
2023-02-23T10:47:46.836Z,184.95
2023-02-23T10:50:14.189Z,183.88
2023-02-23T10:52:45.365Z,187.70
2023-02-23T10:55:30.122Z,176.32
2023-02-23T10:58:09.977Z,177.48
2023-02-23T11:00:40.459Z,197.48
2023-02-23T11:03:19.261Z,164.88
2023-02-23T11:05:50.408Z,166.82
2023-02-23T11:08:29.171Z,160.40
2023-02-23T11:11:00.702Z,166.70
2023-02-23T11:13:40.368Z,162.93
2023-02-23T11:16:10.315Z,164.23
2023-02-23T11:18:39.105Z,146.55
2023-02-23T11:21:11.076Z,151.90
2023-02-23T11:23:40.159Z,161.95
2023-02-23T11:26:23.094Z,155.27
2023-02-23T11:28:56.370Z,169.57
2023-02-23T11:31:29.993Z,153.88
2023-02-23T11:33:58.200Z,159.05
2023-02-23T11:36:24.658Z,153.18
2023-02-23T11:39:11.309Z,156.88
2023-02-23T11:41:37.832Z,143.82
2023-02-23T11:44:06.401Z,150.63
2023-02-23T11:46:37.947Z,148.45
2023-02-23T11:49:09.049Z,144.90
2023-02-23T11:51:39.002Z,146.60
2023-02-23T11:54:10.270Z,146.82
2023-02-23T11:56:36.966Z,135.43
2023-02-23T11:59:15.432Z,144.23
2023-02-23T12:01:48.003Z,135.55
2023-02-23T12:04:40.522Z,149.20
2023-02-23T12:07:41.781Z,143.82
2023-02-23T12:10:26.568Z,130.75
2023-02-23T12:13:05.175Z,133.93
2023-02-23T12:15:36.282Z,128.20
2023-02-23T12:18:38.116Z,123.40
2023-02-23T12:21:15.483Z,139.63
2023-02-23T12:23:46.449Z,134.32
2023-02-23T12:26:21.593Z,139.02
2023-02-23T12:28:58.646Z,132.43
2023-02-23T12:31:44.107Z,130.80
2023-02-23T12:34:55.148Z,131.77
2023-02-23T12:37:29.245Z,133.65
2023-02-23T12:40:25.430Z,124.82
2023-02-23T12:43:22.954Z,140.40
2023-02-23T12:46:00.195Z,135.85
2023-02-23T12:48:38.725Z,137.50
2023-02-23T12:51:44.518Z,132.93
2023-02-23T12:54:12.728Z,127.47
2023-02-23T12:56:51.336Z,143.77
2023-02-23T12:59:51.857Z,132.82
2023-02-23T13:02:43.640Z,123.00
2023-02-23T13:05:31.251Z,126.32
2023-02-23T13:08:13.879Z,127.45
2023-02-23T13:10:52.761Z,131.73
2023-02-23T13:13:58.341Z,112.63
2023-02-23T13:16:34.114Z,124.85
2023-02-23T13:19:28.651Z,116.63
2023-02-23T13:22:00.012Z,115.82
2023-02-23T13:24:31.760Z,115.60
2023-02-23T13:27:18.100Z,118.07
2023-02-23T13:29:49.883Z,110.97
2023-02-23T13:32:22.360Z,106.72
2023-02-23T13:35:04.592Z,108.85
2023-02-23T13:37:43.215Z,101.00
2023-02-23T13:40:31.202Z,110.03
2023-02-23T13:43:07.639Z,108.53
2023-02-23T13:46:01.859Z,103.53
2023-02-23T13:48:55.513Z,99.57
2023-02-23T13:51:37.540Z,98.82
2023-02-23T13:54:16.442Z,95.68
2023-02-23T13:56:53.019Z,91.68
2023-02-23T13:59:22.357Z,94.82
2023-02-23T14:01:54.592Z,84.13
2023-02-23T14:04:36.973Z,97.57
2023-02-23T14:07:09.334Z,89.97
2023-02-23T14:09:40.996Z,87.28
2023-02-23T14:12:10.422Z,91.38
2023-02-23T14:14:37.255Z,89.45
2023-02-23T14:17:15.753Z,87.47
2023-02-23T14:20:06.249Z,85.18
2023-02-23T14:22:34.759Z,82.65
2023-02-23T14:25:32.180Z,82.38
2023-02-23T14:28:06.818Z,83.90
2023-02-23T14:30:52.270Z,73.57
2023-02-23T14:34:00.805Z,75.57
2023-02-23T14:36:27.133Z,72.70
2023-02-23T14:38:56.270Z,93.53
2023-02-23T14:41:55.997Z,107.60
2023-02-23T14:44:31.070Z,73.90
2023-02-23T14:47:15.622Z,64.15
2023-02-23T14:49:47.052Z,71.03
2023-02-23T14:52:25.692Z,64.78
2023-02-23T14:54:53.209Z,65.15
2023-02-23T14:57:24.822Z,68.25
2023-02-23T14:59:57.440Z,77.65
2023-02-23T15:02:26.129Z,77.95
2023-02-23T15:04:52.822Z,69.28
2023-02-23T15:07:35.229Z,75.63
2023-02-23T15:10:08.142Z,73.22
2023-02-23T15:12:37.837Z,74.45
2023-02-23T15:15:13.805Z,69.93
2023-02-23T15:17:43.920Z,77.57
2023-02-23T15:20:23.263Z,70.53
2023-02-23T15:22:55.124Z,79.35
2023-02-23T15:25:26.021Z,74.00
2023-02-23T15:27:53.073Z,78.55
2023-02-23T15:30:32.705Z,89.00
2023-02-23T15:33:05.165Z,80.53
2023-02-23T15:35:42.556Z,79.50
2023-02-23T15:38:17.747Z,82.78
2023-02-23T15:40:55.348Z,83.07
2023-02-23T15:43:22.269Z,87.22
2023-02-23T15:45:54.477Z,97.35
2023-02-23T15:48:24.654Z,87.93
2023-02-23T15:50:56.731Z,77.13
2023-02-23T15:53:29.052Z,98.20
2023-02-23T15:56:02.864Z,81.38
2023-02-23T15:58:44.584Z,76.07
2023-02-23T16:01:24.898Z,76.22
2023-02-23T16:04:14.541Z,70.13
2023-02-23T16:07:12.117Z,57.95
2023-02-23T16:09:39.008Z,66.22
2023-02-23T16:12:17.443Z,54.22
2023-02-23T16:14:48.702Z,51.00
2023-02-23T16:17:45.467Z,52.00
2023-02-23T16:20:30.572Z,59.20
2023-02-23T16:22:58.236Z,45.42
2023-02-23T16:25:27.356Z,67.63
2023-02-23T16:28:02.424Z,73.05
2023-02-23T16:30:32.123Z,69.47
2023-02-23T16:33:22.900Z,68.85
2023-02-23T16:35:52.614Z,61.08
2023-02-23T16:38:33.611Z,68.28
2023-02-23T16:41:00.172Z,73.55
2023-02-23T16:43:26.935Z,75.05
2023-02-23T16:45:53.601Z,60.08
2023-02-23T16:48:20.220Z,52.20
2023-02-23T16:50:47.720Z,45.25
2023-02-23T16:53:14.232Z,42.63
2023-02-23T16:55:46.793Z,55.40
2023-02-23T16:58:19.620Z,40.00
2023-02-23T17:00:46.208Z,42.83
2023-02-23T17:03:25.012Z,46.03
2023-02-23T17:05:52.309Z,57.78
2023-02-23T17:08:18.950Z,62.70
2023-02-23T17:10:48.387Z,53.17
2023-02-23T17:13:20.946Z,73.75
2023-02-23T17:15:51.730Z,63.38
2023-02-23T17:18:26.616Z,43.50
2023-02-23T17:20:54.500Z,47.78
2023-02-23T17:23:22.996Z,45.83
2023-02-23T17:25:49.404Z,50.00
2023-02-23T17:28:15.863Z,50.95
2023-02-23T17:30:44.706Z,48.05
2023-02-23T17:33:11.751Z,50.70
2023-02-23T17:35:38.778Z,47.88
2023-02-23T17:38:06.523Z,61.70
2023-02-23T17:40:36.253Z,50.90
2023-02-23T17:43:06.247Z,49.05
2023-02-23T17:45:32.714Z,38.15
2023-02-23T17:47:59.580Z,39.92
2023-02-23T17:50:27.414Z,49.88
2023-02-23T17:52:54.260Z,48.78
2023-02-23T17:55:22.204Z,44.05
2023-02-23T17:57:48.726Z,35.03
2023-02-23T18:00:19.436Z,52.63
2023-02-23T18:02:46.357Z,38.35
2023-02-23T18:05:14.844Z,47.95
2023-02-23T18:07:42.046Z,59.65
2023-02-23T18:10:09.153Z,38.63
2023-02-23T18:12:35.638Z,36.00
2023-02-23T18:15:02.102Z,45.80
2023-02-23T18:17:28.541Z,42.20
2023-02-23T18:19:54.984Z,53.22
2023-02-23T18:22:21.419Z,42.33
2023-02-23T18:24:47.964Z,52.20
2023-02-23T18:27:14.746Z,42.88
2023-02-23T18:29:41.127Z,42.50
2023-02-23T18:32:08.077Z,44.97
2023-02-23T18:34:35.182Z,32.72
2023-02-23T18:37:03.518Z,34.67
2023-02-23T18:39:31.843Z,37.35
2023-02-23T18:41:59.605Z,45.58
2023-02-23T18:44:26.863Z,31.75
2023-02-23T18:46:54.868Z,35.72
2023-02-23T18:49:24.457Z,35.97
2023-02-23T18:51:51.206Z,30.97
2023-02-23T18:54:18.532Z,34.38
2023-02-23T18:56:47.292Z,37.22
2023-02-23T18:59:14.717Z,43.17
2023-02-23T19:01:45.142Z,33.10
2023-02-23T19:04:12.558Z,35.38
2023-02-23T19:06:42.361Z,29.13
2023-02-23T19:09:12.298Z,26.88
2023-02-23T19:11:39.170Z,43.25
2023-02-23T19:14:08.910Z,37.45
2023-02-23T19:16:36.006Z,24.55
2023-02-23T19:19:07.561Z,43.90
2023-02-23T19:21:34.315Z,32.63
2023-02-23T19:24:02.359Z,48.55
2023-02-23T19:26:29.986Z,45.50
2023-02-23T19:28:57.158Z,38.00
2023-02-23T19:31:25.982Z,35.83
2023-02-23T19:33:55.859Z,36.05
2023-02-23T19:36:29.341Z,44.10
2023-02-23T19:39:06.024Z,42.60
2023-02-23T19:41:33.988Z,53.13
2023-02-23T19:44:00.926Z,30.00
2023-02-23T19:46:27.937Z,37.40
2023-02-23T19:48:54.915Z,46.10
2023-02-23T19:51:22.924Z,36.95
2023-02-23T19:53:49.730Z,37.42
2023-02-23T19:56:16.971Z,38.65
2023-02-23T19:58:46.654Z,32.45
2023-02-23T20:01:19.366Z,32.92
2023-02-23T20:03:55.437Z,38.83
2023-02-23T20:06:25.002Z,27.58
2023-02-23T20:08:52.614Z,29.45
2023-02-23T20:11:19.865Z,39.35
2023-02-23T20:13:46.651Z,37.75
2023-02-23T20:16:14.959Z,36.03
2023-02-23T20:18:43.972Z,36.22
2023-02-23T20:21:19.681Z,34.70
2023-02-23T20:23:47.084Z,24.77
2023-02-23T20:26:19.035Z,28.58
2023-02-23T20:28:45.781Z,35.72
2023-02-23T20:31:18.428Z,27.80
2023-02-23T20:33:44.991Z,30.73
2023-02-23T20:36:12.101Z,23.23
2023-02-23T20:38:38.854Z,31.85
2023-02-23T20:41:05.464Z,24.80
2023-02-23T20:43:31.920Z,31.15
2023-02-23T20:46:01.563Z,31.25
2023-02-23T20:48:31.295Z,30.65
2023-02-23T20:50:58.575Z,29.75
2023-02-23T20:53:26.254Z,30.88
2023-02-23T20:55:54.005Z,33.45
2023-02-23T20:58:25.033Z,25.88
2023-02-23T21:01:02.557Z,28.52
2023-02-23T21:03:29.280Z,28.27
2023-02-23T21:05:55.912Z,25.02
2023-02-23T21:08:22.339Z,27.63
2023-02-23T21:10:50.249Z,30.15
2023-02-23T21:13:18.641Z,38.10
2023-02-23T21:15:45.313Z,26.75
2023-02-23T21:18:12.243Z,27.83
2023-02-23T21:20:39.695Z,26.25
2023-02-23T21:23:06.205Z,21.67
2023-02-23T21:25:32.956Z,23.80
2023-02-23T21:28:01.775Z,23.42
2023-02-23T21:30:28.881Z,30.23
2023-02-23T21:32:56.398Z,19.92
2023-02-23T21:35:23.377Z,18.65
2023-02-23T21:37:52.321Z,24.02
2023-02-23T21:40:23.658Z,24.25
2023-02-23T21:42:51.351Z,22.85
2023-02-23T21:45:19.633Z,28.17
2023-02-23T21:47:46.804Z,29.30
2023-02-23T21:50:16.371Z,19.15
2023-02-23T21:52:45.133Z,23.30
2023-02-23T21:55:21.281Z,19.05
2023-02-23T21:57:48.113Z,22.45
2023-02-23T22:00:16.259Z,19.05
2023-02-23T22:02:46.095Z,15.10
2023-02-23T22:05:13.602Z,16.38
2023-02-23T22:07:40.485Z,18.80
2023-02-23T22:10:07.418Z,20.42
2023-02-23T22:12:33.864Z,17.95
2023-02-23T22:15:06.937Z,16.17
2023-02-23T22:17:33.825Z,16.35
2023-02-23T22:20:00.485Z,16.17
2023-02-23T22:22:27.466Z,12.95
2023-02-23T22:24:53.931Z,18.88
2023-02-23T22:27:20.528Z,17.77
2023-02-23T22:29:47.027Z,13.73
2023-02-23T22:32:13.731Z,14.68
2023-02-23T22:34:40.351Z,13.07
2023-02-23T22:37:07.564Z,12.38
2023-02-23T22:39:33.993Z,15.70
2023-02-23T22:42:09.080Z,14.63
2023-02-23T22:44:38.945Z,21.73
2023-02-23T22:47:06.442Z,15.00
2023-02-23T22:49:34.592Z,18.70
2023-02-23T22:52:01.103Z,15.20
2023-02-23T22:54:27.624Z,14.63
2023-02-23T22:56:55.061Z,11.60
2023-02-23T22:59:21.612Z,16.55
2023-02-23T23:01:50.093Z,14.43
2023-02-23T23:04:17.198Z,14.32
2023-02-23T23:06:43.758Z,16.35
2023-02-23T23:09:12.127Z,10.88
2023-02-23T23:11:41.723Z,18.15
2023-02-23T23:14:10.299Z,15.38
2023-02-23T23:16:47.826Z,20.30
2023-02-23T23:19:18.153Z,15.18
2023-02-23T23:21:45.980Z,14.43
2023-02-23T23:24:13.383Z,13.00
2023-02-23T23:26:41.017Z,18.70
2023-02-23T23:29:11.207Z,18.15
2023-02-23T23:34:09.427Z,15.88
2023-02-23T23:36:42.939Z,16.13
2023-02-23T23:39:15.944Z,17.73
2023-02-23T23:41:47.791Z,13.82
2023-02-23T23:44:17.014Z,16.05
2023-02-23T23:46:45.055Z,14.35
2023-02-23T23:49:15.795Z,17.17
2023-02-23T23:51:45.345Z,14.18
2023-02-23T23:54:21.705Z,12.25
2023-02-23T23:56:49.473Z,21.77
2023-02-23T23:59:17.660Z,12.55
